首页
METAR-TAF:

METAR-TAF

机场 :

檳城國際機場

槟城, 马来西亚

纬度: 05-18N, 经度: 100-16E, 海拔: 3米

当前天气观测

该预报发布于28分钟前的22:30 UTC
静风
温度 30°C
湿度 84%
气压 1008 hPa
能見度: 8000
少量云层高于1700英尺, 积雨云.

METAR: WMKP 282230Z 00000KT 8000 FEW017CB 30/27 Q1008 NOSIG

时间: 06:58 (22:58 UTC)

预报

该预报发布于5小时和58分钟前的17:00 UTC
预报有效从28日的 18点(UTC)到 29日的 18点(UTC)
风速3节,风向多变
能見度: 8000
少量云层高于2500英尺
成为
从 29日的 04点(UTC)到 29日的 06点(UTC)
风速10节,风向西南
成为
从 29日的 10点(UTC)到 29日的 12点(UTC)
风速3节,风向多变

TAF: WMKP 281700Z 2818/2918 VRB03KT 8000 FEW025 BECMG 2904/2906 22010KT BECMG 2910/2912 VRB03KT

超过4000个机场的气象观测和天气预报(METAR&TAF报告)。

可查询的气象台以黄色和红色小点在地图上表示。

将鼠标移到小点上方,可查看气象台名称。

然后点击查看天气观测和预报。

如需切换地图:点击带黑十字的绿色按钮放大地图;点击带横线的绿色按钮缩小地图;或者点击绿色箭头查看邻近地区的地图。


METAR-TAF: